createdAt,value
2023-02-19T00:00:52.688Z,968.57
2023-02-19T00:01:52.576Z,968.59
2023-02-19T00:02:52.687Z,968.57
2023-02-19T00:03:52.670Z,968.58
2023-02-19T00:04:52.552Z,968.51
2023-02-19T00:05:52.697Z,968.57
2023-02-19T00:06:52.653Z,968.55
2023-02-19T00:07:52.736Z,968.51
2023-02-19T00:08:52.631Z,968.56
2023-02-19T00:09:52.602Z,968.54
2023-02-19T00:11:52.608Z,968.56
2023-02-19T00:12:52.664Z,968.53
2023-02-19T00:13:52.611Z,968.57
2023-02-19T00:14:52.684Z,968.56
2023-02-19T00:15:52.624Z,968.49
2023-02-19T00:16:52.690Z,968.55
2023-02-19T00:17:52.610Z,968.53
2023-02-19T00:18:52.564Z,968.55
2023-02-19T00:19:52.649Z,968.57
2023-02-19T00:21:52.603Z,968.55
2023-02-19T00:23:52.724Z,968.53
2023-02-19T00:24:52.730Z,968.54
2023-02-19T00:25:52.722Z,968.49
2023-02-19T00:26:52.747Z,968.51
2023-02-19T00:27:52.764Z,968.5
2023-02-19T00:28:52.764Z,968.47
2023-02-19T00:29:52.662Z,968.46
2023-02-19T00:30:52.683Z,968.48
2023-02-19T00:31:52.907Z,968.45
2023-02-19T00:32:52.706Z,968.46
2023-02-19T00:33:52.678Z,968.48
2023-02-19T00:34:52.651Z,968.49
2023-02-19T00:35:52.718Z,968.57
2023-02-19T00:36:52.702Z,968.56
2023-02-19T00:37:52.726Z,968.6
2023-02-19T00:38:52.864Z,968.54
2023-02-19T00:39:52.618Z,968.52
2023-02-19T00:40:52.705Z,968.51
2023-02-19T00:42:52.784Z,968.42
2023-02-19T00:43:52.807Z,968.43
2023-02-19T00:44:52.723Z,968.4
2023-02-19T00:45:52.744Z,968.45
2023-02-19T00:46:52.861Z,968.4
2023-02-19T00:49:52.732Z,968.43
2023-02-19T00:50:52.695Z,968.45
2023-02-19T00:52:52.727Z,968.43
2023-02-19T00:53:52.774Z,968.45
2023-02-19T00:54:52.806Z,968.42
2023-02-19T00:57:52.728Z,968.4
2023-02-19T00:58:52.828Z,968.42
2023-02-19T00:59:52.779Z,968.4
2023-02-19T01:00:52.808Z,968.38
2023-02-19T01:01:52.696Z,968.37
2023-02-19T01:02:52.781Z,968.43
2023-02-19T01:03:52.830Z,968.42
2023-02-19T01:04:52.845Z,968.4
2023-02-19T01:05:52.754Z,968.45
2023-02-19T01:06:52.763Z,968.47
2023-02-19T01:07:52.803Z,968.43
2023-02-19T01:08:52.872Z,968.44
2023-02-19T01:10:52.797Z,968.43
2023-02-19T01:11:52.862Z,968.45
2023-02-19T01:12:52.890Z,968.44
2023-02-19T01:13:52.812Z,968.47
2023-02-19T01:14:52.710Z,968.46
2023-02-19T01:15:52.864Z,968.47
2023-02-19T01:16:52.722Z,968.51
2023-02-19T01:17:52.703Z,968.54
2023-02-19T01:18:52.904Z,968.46
2023-02-19T01:19:52.812Z,968.42
2023-02-19T01:20:52.940Z,968.35
2023-02-19T01:21:52.694Z,968.37
2023-02-19T01:22:52.780Z,968.38
2023-02-19T01:23:52.879Z,968.34
2023-02-19T01:24:52.897Z,968.31
2023-02-19T01:25:52.776Z,968.27
2023-02-19T01:26:52.887Z,968.28
2023-02-19T01:27:52.748Z,968.25
2023-02-19T01:28:53.903Z,968.24
2023-02-19T01:29:52.890Z,968.22
2023-02-19T01:30:52.838Z,968.24
2023-02-19T01:31:53.031Z,968.23
2023-02-19T01:32:52.839Z,968.22
2023-02-19T01:33:52.891Z,968.19
2023-02-19T01:34:52.836Z,968.22
2023-02-19T01:35:52.852Z,968.24
2023-02-19T01:36:52.761Z,968.25
2023-02-19T01:37:52.914Z,968.26
2023-02-19T01:38:52.898Z,968.21
2023-02-19T01:39:52.927Z,968.2
2023-02-19T01:40:52.774Z,968.27
2023-02-19T01:41:52.883Z,968.25
2023-02-19T01:42:52.920Z,968.24
2023-02-19T01:44:52.980Z,968.25
2023-02-19T01:45:52.807Z,968.26
2023-02-19T01:46:52.832Z,968.23
2023-02-19T01:47:52.906Z,968.2
2023-02-19T01:48:52.909Z,968.23
2023-02-19T01:49:52.960Z,968.2
2023-02-19T01:50:52.917Z,968.23
2023-02-19T01:51:52.879Z,968.19
2023-02-19T01:52:52.999Z,968.18
2023-02-19T01:55:52.972Z,968.17
2023-02-19T01:56:52.918Z,968.15
2023-02-19T01:57:52.886Z,968.19
2023-02-19T01:58:52.958Z,968.17
2023-02-19T01:59:52.876Z,968.16
2023-02-19T02:00:53.105Z,968.11
2023-02-19T02:01:52.815Z,968.15
2023-02-19T02:02:52.951Z,968.1
2023-02-19T02:03:57.168Z,968.12
2023-02-19T02:05:52.864Z,968.08
2023-02-19T02:06:52.950Z,968.1
2023-02-19T02:07:53.014Z,968.11
2023-02-19T02:08:52.948Z,968.06
2023-02-19T02:09:52.936Z,968.05
2023-02-19T02:10:52.998Z,968
2023-02-19T02:12:53.043Z,967.96
2023-02-19T02:13:52.848Z,967.91
2023-02-19T02:14:53.084Z,967.85
2023-02-19T02:15:52.987Z,967.84
2023-02-19T02:16:52.936Z,967.79
2023-02-19T02:17:53.058Z,967.8
2023-02-19T02:18:53.079Z,967.75
2023-02-19T02:19:52.990Z,967.73
2023-02-19T02:20:53.018Z,967.72
2023-02-19T02:22:52.935Z,967.69
2023-02-19T02:23:52.974Z,967.7
2023-02-19T02:24:53.012Z,967.67
2023-02-19T02:25:53.013Z,967.7
2023-02-19T02:26:52.927Z,967.68
2023-02-19T02:27:53.060Z,967.67
2023-02-19T02:28:53.032Z,967.69
2023-02-19T02:29:52.980Z,967.7
2023-02-19T02:30:53.103Z,967.67
2023-02-19T02:31:53.083Z,967.65
2023-02-19T02:32:52.949Z,967.62
2023-02-19T02:33:53.025Z,967.59
2023-02-19T02:35:52.966Z,967.58
2023-02-19T02:36:52.882Z,967.56
2023-02-19T02:38:53.112Z,967.57
2023-02-19T02:39:53.013Z,967.54
2023-02-19T02:40:53.101Z,967.5
2023-02-19T02:41:52.947Z,967.52
2023-02-19T02:42:52.943Z,967.51
2023-02-19T02:43:52.973Z,967.46
2023-02-19T02:44:53.019Z,967.5
2023-02-19T02:45:53.216Z,967.53
2023-02-19T02:46:53.074Z,967.46
2023-02-19T02:48:53.108Z,967.43
2023-02-19T02:49:52.940Z,967.48
2023-02-19T02:50:53.031Z,967.49
2023-02-19T02:51:53.081Z,967.52
2023-02-19T02:52:53.130Z,967.51
2023-02-19T02:53:53.190Z,967.49
2023-02-19T02:54:52.982Z,967.53
2023-02-19T02:55:53.049Z,967.5
2023-02-19T02:56:53.110Z,967.55
2023-02-19T02:57:53.302Z,967.61
2023-02-19T02:58:53.047Z,967.65
2023-02-19T02:59:52.960Z,967.62
2023-02-19T03:00:53.178Z,967.65
2023-02-19T03:01:53.115Z,967.62
2023-02-19T03:02:53.008Z,967.6
2023-02-19T03:03:53.076Z,967.61
2023-02-19T03:05:53.049Z,967.59
2023-02-19T03:06:53.101Z,967.6
2023-02-19T03:07:53.025Z,967.59
2023-02-19T03:10:53.170Z,967.57
2023-02-19T03:11:53.169Z,967.55
2023-02-19T03:12:53.089Z,967.54
2023-02-19T03:13:53.118Z,967.56
2023-02-19T03:14:53.116Z,967.55
2023-02-19T03:16:53.208Z,967.63
2023-02-19T03:17:53.061Z,967.65
2023-02-19T03:18:53.165Z,967.63
2023-02-19T03:19:52.954Z,967.58
2023-02-19T03:20:53.188Z,967.55
2023-02-19T03:21:53.077Z,967.57
2023-02-19T03:23:53.154Z,967.56
2023-02-19T03:24:53.140Z,967.58
2023-02-19T03:25:53.184Z,967.59
2023-02-19T03:26:53.073Z,967.61
2023-02-19T03:27:53.250Z,967.63
2023-02-19T03:29:53.016Z,967.66
2023-02-19T03:30:53.254Z,967.7
2023-02-19T03:31:53.356Z,967.72
2023-02-19T03:32:53.204Z,967.75
2023-02-19T03:33:53.231Z,967.74
2023-02-19T03:35:53.084Z,967.76
2023-02-19T03:36:53.117Z,967.75
2023-02-19T03:37:53.164Z,967.7
2023-02-19T03:39:53.123Z,967.69
2023-02-19T03:40:53.160Z,967.64
2023-02-19T03:41:53.115Z,967.62
2023-02-19T03:42:55.057Z,967.61
2023-02-19T03:43:53.179Z,967.55
2023-02-19T03:44:53.093Z,967.59
2023-02-19T03:45:55.178Z,967.52
2023-02-19T03:46:53.178Z,967.54
2023-02-19T03:48:53.175Z,967.55
2023-02-19T03:49:53.253Z,967.53
2023-02-19T03:50:53.155Z,967.54
2023-02-19T03:51:53.178Z,967.59
2023-02-19T03:52:53.234Z,967.65
2023-02-19T03:53:53.319Z,967.68
2023-02-19T03:54:53.149Z,967.69
2023-02-19T03:55:53.152Z,967.8
2023-02-19T03:56:53.189Z,967.81
2023-02-19T03:57:53.258Z,967.9
2023-02-19T03:58:53.242Z,967.98
2023-02-19T03:59:53.314Z,968.06
2023-02-19T04:01:53.271Z,968.1
2023-02-19T04:02:53.305Z,968.14
2023-02-19T04:03:53.159Z,968.12
2023-02-19T04:04:53.287Z,968.09
2023-02-19T04:05:53.172Z,968.08
2023-02-19T04:06:53.121Z,968.09
2023-02-19T04:07:53.275Z,968.08
2023-02-19T04:08:53.930Z,968.09
2023-02-19T04:09:53.261Z,968.02
2023-02-19T04:10:53.229Z,968.03
2023-02-19T04:11:53.248Z,967.97
2023-02-19T04:12:53.198Z,967.98
2023-02-19T04:13:53.227Z,967.94
2023-02-19T04:14:53.256Z,967.92
2023-02-19T04:15:53.264Z,967.9
2023-02-19T04:16:53.277Z,967.84
2023-02-19T04:17:53.341Z,967.77
2023-02-19T04:18:53.177Z,967.74
2023-02-19T04:19:53.123Z,967.71
2023-02-19T04:20:53.169Z,967.7
2023-02-19T04:21:53.277Z,967.69
2023-02-19T04:22:53.286Z,967.7
2023-02-19T04:23:53.377Z,967.62
2023-02-19T04:24:53.315Z,967.66
2023-02-19T04:25:53.231Z,967.68
2023-02-19T04:26:53.256Z,967.74
2023-02-19T04:27:53.368Z,967.77
2023-02-19T04:28:53.248Z,967.72
2023-02-19T04:29:53.258Z,967.69
2023-02-19T04:30:53.302Z,967.64
2023-02-19T04:31:53.433Z,967.57
2023-02-19T04:32:53.279Z,967.53
2023-02-19T04:33:53.314Z,967.5
2023-02-19T04:34:54.364Z,967.56
2023-02-19T04:35:53.318Z,967.59
2023-02-19T04:36:53.329Z,967.62
2023-02-19T04:37:53.308Z,967.64
2023-02-19T04:38:53.344Z,967.66
2023-02-19T04:39:53.391Z,967.67
2023-02-19T04:41:53.392Z,967.59
2023-02-19T04:43:53.249Z,967.58
2023-02-19T04:44:53.427Z,967.56
2023-02-19T04:45:53.320Z,967.59
2023-02-19T04:46:53.329Z,967.55
2023-02-19T04:47:53.388Z,967.64
2023-02-19T04:48:53.216Z,967.68
2023-02-19T04:49:53.279Z,967.73
2023-02-19T04:50:53.376Z,967.7
2023-02-19T04:51:53.353Z,967.69
2023-02-19T04:52:53.271Z,967.61
2023-02-19T04:53:53.353Z,967.63
2023-02-19T04:54:53.292Z,967.59
2023-02-19T04:56:53.407Z,967.6
2023-02-19T04:57:53.292Z,967.63
2023-02-19T04:58:53.414Z,967.68
2023-02-19T04:59:53.381Z,967.7
2023-02-19T05:00:53.443Z,967.72
2023-02-19T05:01:53.554Z,967.76
2023-02-19T05:03:53.344Z,967.75
2023-02-19T05:04:53.489Z,967.73
2023-02-19T05:05:53.405Z,967.67
2023-02-19T05:06:53.418Z,967.62
2023-02-19T05:08:53.413Z,967.67
2023-02-19T05:09:53.545Z,967.68
2023-02-19T05:10:53.454Z,967.74
2023-02-19T05:11:53.428Z,967.71
2023-02-19T05:12:53.442Z,967.73
2023-02-19T05:13:53.323Z,967.69
2023-02-19T05:14:53.381Z,967.67
2023-02-19T05:15:53.329Z,967.76
2023-02-19T05:16:53.445Z,967.69
2023-02-19T05:17:53.434Z,967.68
2023-02-19T05:18:53.392Z,967.74
2023-02-19T05:19:53.431Z,967.72
2023-02-19T05:20:53.342Z,967.76
2023-02-19T05:21:53.377Z,967.69
2023-02-19T05:22:53.426Z,967.71
2023-02-19T05:23:53.491Z,967.73
2023-02-19T05:24:53.359Z,967.75
2023-02-19T05:25:53.360Z,967.76
2023-02-19T05:26:53.323Z,967.78
2023-02-19T05:28:53.422Z,967.8
2023-02-19T05:29:54.612Z,967.81
2023-02-19T05:30:53.454Z,967.83
2023-02-19T05:31:53.556Z,967.86
2023-02-19T05:32:53.488Z,967.84
2023-02-19T05:33:53.388Z,967.83
2023-02-19T05:34:53.536Z,967.82
2023-02-19T05:35:53.370Z,967.79
2023-02-19T05:36:53.390Z,967.75
2023-02-19T05:37:53.472Z,967.76
2023-02-19T05:38:53.502Z,967.74
2023-02-19T05:39:53.411Z,967.68
2023-02-19T05:40:53.407Z,967.73
2023-02-19T05:41:54.705Z,967.74
2023-02-19T05:43:53.535Z,967.75
2023-02-19T05:44:53.312Z,967.77
2023-02-19T05:45:53.548Z,967.69
2023-02-19T05:46:53.541Z,967.64
2023-02-19T05:47:53.492Z,967.74
2023-02-19T05:48:53.459Z,967.69
2023-02-19T05:49:53.500Z,967.65
2023-02-19T05:50:53.511Z,967.68
2023-02-19T05:51:53.492Z,967.69
2023-02-19T05:52:53.444Z,967.68
2023-02-19T05:53:53.586Z,967.67
2023-02-19T05:54:53.519Z,967.68
2023-02-19T05:55:53.473Z,967.72
2023-02-19T05:56:53.515Z,967.66
2023-02-19T05:57:53.551Z,967.7
2023-02-19T05:58:53.514Z,967.67
2023-02-19T05:59:53.380Z,967.71
2023-02-19T06:00:53.560Z,967.77
2023-02-19T06:01:53.583Z,967.79
2023-02-19T06:02:53.641Z,967.85
2023-02-19T06:03:56.057Z,967.87
2023-02-19T06:04:53.485Z,967.91
2023-02-19T06:05:53.490Z,967.92
2023-02-19T06:06:53.571Z,967.93
2023-02-19T06:07:53.581Z,967.94
2023-02-19T06:09:53.598Z,967.96
2023-02-19T06:10:53.511Z,968.02
2023-02-19T06:11:53.615Z,967.98
2023-02-19T06:12:53.569Z,968.02
2023-02-19T06:13:53.586Z,968.08
2023-02-19T06:14:53.593Z,968.09
2023-02-19T06:15:53.581Z,968.16
2023-02-19T06:16:53.621Z,968.19
2023-02-19T06:17:53.633Z,968.22
2023-02-19T06:18:53.471Z,968.24
2023-02-19T06:19:53.426Z,968.32
2023-02-19T06:20:53.621Z,968.34
2023-02-19T06:21:53.481Z,968.33
2023-02-19T06:22:53.575Z,968.37
2023-02-19T06:23:53.630Z,968.41
2023-02-19T06:24:53.554Z,968.39
2023-02-19T06:25:53.506Z,968.38
2023-02-19T06:26:53.539Z,968.39
2023-02-19T06:29:53.610Z,968.4
2023-02-19T06:31:53.714Z,968.41
2023-02-19T06:32:53.553Z,968.42
2023-02-19T06:33:53.580Z,968.39
2023-02-19T06:34:53.582Z,968.41
2023-02-19T06:35:53.572Z,968.42
2023-02-19T06:36:53.830Z,968.43
2023-02-19T06:38:53.538Z,968.47
2023-02-19T06:39:53.638Z,968.5
2023-02-19T06:40:53.501Z,968.53
2023-02-19T06:42:53.684Z,968.57
2023-02-19T06:43:53.548Z,968.58
2023-02-19T06:45:53.590Z,968.59
2023-02-19T06:47:53.624Z,968.62
2023-02-19T06:48:53.685Z,968.59
2023-02-19T06:50:53.636Z,968.63
2023-02-19T06:52:53.691Z,968.61
2023-02-19T06:53:53.650Z,968.65
2023-02-19T06:54:53.603Z,968.61
2023-02-19T06:56:53.565Z,968.64
2023-02-19T06:57:53.717Z,968.67
2023-02-19T06:58:53.666Z,968.68
2023-02-19T06:59:53.561Z,968.71
2023-02-19T07:00:53.590Z,968.73
2023-02-19T07:02:53.609Z,968.78
2023-02-19T07:03:53.617Z,968.81
2023-02-19T07:04:53.609Z,968.8
2023-02-19T07:06:53.630Z,968.88
2023-02-19T07:07:53.656Z,968.87
2023-02-19T07:08:53.620Z,968.89
2023-02-19T07:09:53.615Z,968.92
2023-02-19T07:10:53.681Z,968.94
2023-02-19T07:11:53.658Z,968.96
2023-02-19T07:12:53.704Z,968.98
2023-02-19T07:13:53.730Z,968.99
2023-02-19T07:14:53.675Z,969.04
2023-02-19T07:15:53.585Z,969.05
2023-02-19T07:16:53.571Z,969.04
2023-02-19T07:17:53.634Z,969.03
2023-02-19T07:18:53.612Z,969.05
2023-02-19T07:19:53.602Z,969.03
2023-02-19T07:20:53.590Z,969.08
2023-02-19T07:21:53.764Z,969.06
2023-02-19T07:22:53.629Z,969.09
2023-02-19T07:23:53.689Z,969.11
2023-02-19T07:24:53.769Z,969.09
2023-02-19T07:25:53.709Z,969.15
2023-02-19T07:27:53.718Z,969.2
2023-02-19T07:28:53.691Z,969.23
2023-02-19T07:29:53.682Z,969.22
2023-02-19T07:30:53.620Z,969.25
2023-02-19T07:31:53.693Z,969.29
2023-02-19T07:32:53.745Z,969.3
2023-02-19T07:33:53.708Z,969.29
2023-02-19T07:34:53.627Z,969.3
2023-02-19T07:35:53.630Z,969.32
2023-02-19T07:36:53.736Z,969.35
2023-02-19T07:37:53.681Z,969.41
2023-02-19T07:39:53.767Z,969.46
2023-02-19T07:40:53.695Z,969.48
2023-02-19T07:41:53.703Z,969.53
2023-02-19T07:42:53.753Z,969.51
2023-02-19T07:43:53.763Z,969.54
2023-02-19T07:44:53.654Z,969.55
2023-02-19T07:45:53.841Z,969.56
2023-02-19T07:46:53.721Z,969.58
2023-02-19T07:47:53.802Z,969.59
2023-02-19T07:48:53.761Z,969.58
2023-02-19T07:49:53.696Z,969.56
2023-02-19T07:50:53.772Z,969.61
2023-02-19T07:51:53.682Z,969.59
2023-02-19T07:52:53.693Z,969.61
2023-02-19T07:53:53.658Z,969.65
2023-02-19T07:54:53.795Z,969.66
2023-02-19T07:56:53.769Z,969.7
2023-02-19T07:57:53.676Z,969.73
2023-02-19T07:58:53.737Z,969.74
2023-02-19T08:03:53.811Z,969.72
2023-02-19T08:04:53.720Z,969.73
2023-02-19T08:06:53.730Z,969.75
2023-02-19T08:07:53.747Z,969.77
2023-02-19T08:09:53.738Z,969.81
2023-02-19T08:11:53.692Z,969.9
2023-02-19T08:12:53.791Z,969.87
2023-02-19T08:13:53.752Z,969.86
2023-02-19T08:14:53.801Z,969.89
2023-02-19T08:15:56.267Z,969.88
2023-02-19T08:16:54.075Z,969.91
2023-02-19T08:17:53.761Z,969.9
2023-02-19T08:18:53.803Z,969.88
2023-02-19T08:19:53.858Z,969.93
2023-02-19T08:20:53.730Z,969.95
2023-02-19T08:21:53.765Z,969.96
2023-02-19T08:22:53.751Z,969.97
2023-02-19T08:23:53.862Z,969.93
2023-02-19T08:24:53.852Z,969.96
2023-02-19T08:26:53.755Z,970
2023-02-19T08:27:53.761Z,970.02
2023-02-19T08:28:53.758Z,970.01
2023-02-19T08:29:53.843Z,969.99
2023-02-19T08:30:54.080Z,970.02
2023-02-19T08:31:53.931Z,970.03
2023-02-19T08:34:53.865Z,970.05
2023-02-19T08:35:53.845Z,970.09
2023-02-19T08:36:53.917Z,970.06
2023-02-19T08:37:53.942Z,970.1
2023-02-19T08:38:53.780Z,970.09
2023-02-19T08:39:53.774Z,970.16
2023-02-19T08:40:53.891Z,970.17
2023-02-19T08:41:53.771Z,970.19
2023-02-19T08:42:53.790Z,970.2
2023-02-19T08:43:53.753Z,970.19
2023-02-19T08:45:53.835Z,970.21
2023-02-19T08:47:53.829Z,970.26
2023-02-19T08:49:53.800Z,970.24
2023-02-19T08:50:53.955Z,970.25
2023-02-19T08:51:53.781Z,970.27
2023-02-19T08:52:53.885Z,970.25
2023-02-19T08:53:53.870Z,970.28
2023-02-19T08:54:53.831Z,970.29
2023-02-19T08:55:53.887Z,970.27
2023-02-19T08:56:53.891Z,970.24
2023-02-19T08:58:53.888Z,970.23
2023-02-19T08:59:53.937Z,970.21
2023-02-19T09:01:53.919Z,970.25
2023-02-19T09:02:53.914Z,970.21
2023-02-19T09:03:53.959Z,970.24
2023-02-19T09:04:53.842Z,970.27
2023-02-19T09:05:53.902Z,970.28
2023-02-19T09:06:53.856Z,970.3
2023-02-19T09:07:53.892Z,970.25
2023-02-19T09:09:53.954Z,970.28
2023-02-19T09:10:53.854Z,970.27
2023-02-19T09:11:53.852Z,970.31
2023-02-19T09:12:53.937Z,970.29
2023-02-19T09:13:53.882Z,970.31
2023-02-19T09:14:53.833Z,970.33
2023-02-19T09:15:53.990Z,970.28
2023-02-19T09:16:53.910Z,970.3
2023-02-19T09:18:53.977Z,970.28
2023-02-19T09:19:53.953Z,970.23
2023-02-19T09:21:53.860Z,970.25
2023-02-19T09:22:53.877Z,970.27
2023-02-19T09:23:53.820Z,970.22
2023-02-19T09:24:54.010Z,970.24
2023-02-19T09:25:54.986Z,970.27
2023-02-19T09:26:53.861Z,970.22
2023-02-19T09:27:54.034Z,970.25
2023-02-19T09:28:53.964Z,970.22
2023-02-19T09:29:53.926Z,970.23
2023-02-19T09:31:54.009Z,970.2
2023-02-19T09:32:53.979Z,970.25
2023-02-19T09:34:53.903Z,970.3
2023-02-19T09:35:54.016Z,970.29
2023-02-19T09:37:53.962Z,970.34
2023-02-19T09:38:53.929Z,970.35
2023-02-19T09:39:54.114Z,970.32
2023-02-19T09:40:54.015Z,970.29
2023-02-19T09:41:53.969Z,970.31
2023-02-19T09:42:53.876Z,970.32
2023-02-19T09:43:53.963Z,970.34
2023-02-19T09:44:54.093Z,970.3
2023-02-19T09:45:53.927Z,970.25
2023-02-19T09:46:53.924Z,970.31
2023-02-19T09:47:54.027Z,970.29
2023-02-19T09:48:54.063Z,970.34
2023-02-19T09:49:54.038Z,970.33
2023-02-19T09:50:54.105Z,970.36
2023-02-19T09:51:53.956Z,970.37
2023-02-19T09:53:53.987Z,970.4
2023-02-19T09:55:53.971Z,970.44
2023-02-19T09:56:54.023Z,970.43
2023-02-19T09:57:53.998Z,970.42
2023-02-19T09:58:53.969Z,970.43
2023-02-19T09:59:54.068Z,970.48
2023-02-19T10:00:53.951Z,970.44
2023-02-19T10:01:54.010Z,970.43
2023-02-19T10:02:53.965Z,970.47
2023-02-19T10:03:54.224Z,970.44
2023-02-19T10:04:54.022Z,970.47
2023-02-19T10:05:54.161Z,970.5
2023-02-19T10:07:54.152Z,970.56
2023-02-19T10:08:54.092Z,970.53
2023-02-19T10:10:54.156Z,970.54
2023-02-19T10:11:54.116Z,970.56
2023-02-19T10:12:54.029Z,970.55
2023-02-19T10:13:54.141Z,970.56
2023-02-19T10:14:54.038Z,970.6
2023-02-19T10:15:54.029Z,970.59
2023-02-19T10:16:54.106Z,970.57
2023-02-19T10:17:53.985Z,970.59
2023-02-19T10:18:54.081Z,970.55
2023-02-19T10:19:54.102Z,970.54
2023-02-19T10:20:54.064Z,970.57
2023-02-19T10:21:54.095Z,970.56
2023-02-19T10:22:54.120Z,970.5
2023-02-19T10:23:54.079Z,970.51
2023-02-19T10:24:54.062Z,970.44
2023-02-19T10:25:54.053Z,970.48
2023-02-19T10:26:54.077Z,970.52
2023-02-19T10:27:54.071Z,970.48
2023-02-19T10:29:54.047Z,970.45
2023-02-19T10:30:54.107Z,970.46
2023-02-19T10:31:54.369Z,970.44
2023-02-19T10:32:54.123Z,970.43
2023-02-19T10:33:54.218Z,970.46
2023-02-19T10:34:54.273Z,970.5
2023-02-19T10:35:54.034Z,970.53
2023-02-19T10:36:54.076Z,970.54
2023-02-19T10:37:54.142Z,970.49
2023-02-19T10:38:54.122Z,970.53
2023-02-19T10:39:54.150Z,970.56
2023-02-19T10:40:54.043Z,970.59
2023-02-19T10:41:54.103Z,970.61
2023-02-19T10:42:54.216Z,970.62
2023-02-19T10:43:54.073Z,970.6
2023-02-19T10:44:54.170Z,970.55
2023-02-19T10:45:54.195Z,970.58
2023-02-19T10:46:54.088Z,970.57
2023-02-19T10:47:54.122Z,970.5
2023-02-19T10:49:54.179Z,970.51
2023-02-19T10:50:54.208Z,970.5
2023-02-19T10:51:54.205Z,970.46
2023-02-19T10:52:54.234Z,970.47
2023-02-19T10:54:54.166Z,970.47
2023-02-19T10:55:54.135Z,970.49
2023-02-19T10:56:54.105Z,970.52
2023-02-19T10:57:54.190Z,970.49
2023-02-19T10:58:54.185Z,970.48
2023-02-19T11:00:54.234Z,970.5
2023-02-19T11:01:54.161Z,970.46
2023-02-19T11:02:54.055Z,970.5
2023-02-19T11:03:54.212Z,970.52
2023-02-19T11:04:55.442Z,970.49
2023-02-19T11:06:54.276Z,970.46
2023-02-19T11:07:54.269Z,970.4
2023-02-19T11:09:54.181Z,970.39
2023-02-19T11:10:54.250Z,970.34
2023-02-19T11:11:54.219Z,970.38
2023-02-19T11:12:54.183Z,970.37
2023-02-19T11:14:54.299Z,970.34
2023-02-19T11:15:54.269Z,970.36
2023-02-19T11:16:54.134Z,970.35
2023-02-19T11:17:54.323Z,970.33
2023-02-19T11:18:56.647Z,970.34
2023-02-19T11:20:54.312Z,970.3
2023-02-19T11:21:54.176Z,970.29
2023-02-19T11:22:54.182Z,970.28
2023-02-19T11:23:54.249Z,970.25
2023-02-19T11:24:57.358Z,970.18
2023-02-19T11:25:54.404Z,970.17
2023-02-19T11:27:54.275Z,970.13
2023-02-19T11:28:54.243Z,970.12
2023-02-19T11:29:54.185Z,970.16
2023-02-19T11:30:54.192Z,970.13
2023-02-19T11:31:54.322Z,970.15
2023-02-19T11:32:54.221Z,970.11
2023-02-19T11:33:54.441Z,970.09
2023-02-19T11:34:54.235Z,970.1
2023-02-19T11:35:54.310Z,970.08
2023-02-19T11:36:54.429Z,970.07
2023-02-19T11:37:54.164Z,970.08
2023-02-19T11:39:54.248Z,970.14
2023-02-19T11:40:54.300Z,970.11
2023-02-19T11:41:54.263Z,970.15
2023-02-19T11:42:54.304Z,970.16
2023-02-19T11:43:54.252Z,970.15
2023-02-19T11:44:54.224Z,970.19
2023-02-19T11:45:54.385Z,970.16
2023-02-19T11:46:54.533Z,970.2
2023-02-19T11:48:54.201Z,970.17
2023-02-19T11:49:54.323Z,970.21
2023-02-19T11:50:54.246Z,970.16
2023-02-19T11:51:54.294Z,970.21
2023-02-19T11:52:54.393Z,970.17
2023-02-19T11:53:54.213Z,970.19
2023-02-19T11:54:54.335Z,970.15
2023-02-19T11:55:54.410Z,970.13
2023-02-19T11:56:54.235Z,970.15
2023-02-19T11:58:54.426Z,970.16
2023-02-19T11:59:54.277Z,970.14
2023-02-19T12:00:54.333Z,970.11
2023-02-19T12:01:54.299Z,970.09
2023-02-19T12:02:54.317Z,970.13
2023-02-19T12:04:54.395Z,970.12
2023-02-19T12:05:54.327Z,970.11
2023-02-19T12:06:54.281Z,970.12
2023-02-19T12:07:54.215Z,970.09
2023-02-19T12:08:54.336Z,970.12
2023-02-19T12:09:54.362Z,970.1
2023-02-19T12:10:54.280Z,970.09
2023-02-19T12:12:54.341Z,970.05
2023-02-19T12:13:54.262Z,970.03
2023-02-19T12:14:54.219Z,970.04
2023-02-19T12:17:54.362Z,970.01
2023-02-19T12:18:54.463Z,970
2023-02-19T12:20:55.361Z,969.96
2023-02-19T12:21:54.423Z,969.94
2023-02-19T12:22:54.433Z,969.9
2023-02-19T12:23:54.266Z,969.88
2023-02-19T12:24:54.299Z,969.94
2023-02-19T12:25:54.457Z,969.95
2023-02-19T12:26:54.324Z,969.92
2023-02-19T12:28:54.375Z,969.88
2023-02-19T12:29:54.375Z,969.86
2023-02-19T12:30:54.407Z,969.87
2023-02-19T12:31:54.479Z,969.88
2023-02-19T12:33:54.487Z,969.9
2023-02-19T12:34:54.464Z,969.86
2023-02-19T12:35:54.385Z,969.85
2023-02-19T12:37:54.376Z,969.86
2023-02-19T12:38:54.416Z,969.84
2023-02-19T12:39:54.296Z,969.85
2023-02-19T12:42:54.369Z,969.84
2023-02-19T12:43:54.385Z,969.86
2023-02-19T12:44:54.415Z,969.84
2023-02-19T12:45:54.385Z,969.83
2023-02-19T12:46:54.383Z,969.81
2023-02-19T12:47:54.420Z,969.82
2023-02-19T12:48:54.317Z,969.84
2023-02-19T12:49:54.470Z,969.89
2023-02-19T12:50:54.497Z,969.86
2023-02-19T12:51:54.360Z,969.85
2023-02-19T12:53:54.403Z,969.9
2023-02-19T12:54:55.770Z,969.85
2023-02-19T12:55:54.470Z,969.89
2023-02-19T12:56:54.491Z,969.85
2023-02-19T12:57:54.509Z,969.83
2023-02-19T12:58:54.531Z,969.87
2023-02-19T12:59:54.444Z,969.83
2023-02-19T13:00:54.485Z,969.87
2023-02-19T13:01:54.457Z,969.85
2023-02-19T13:02:54.519Z,969.88
2023-02-19T13:04:54.501Z,969.93
2023-02-19T13:05:54.536Z,969.94
2023-02-19T13:09:54.532Z,969.98
2023-02-19T13:10:54.594Z,970.02
2023-02-19T13:11:54.458Z,970.01
2023-02-19T13:12:54.489Z,970.03
2023-02-19T13:14:54.577Z,970.07
2023-02-19T13:15:54.492Z,970.08
2023-02-19T13:16:54.538Z,970.03
2023-02-19T13:17:54.482Z,970.02
2023-02-19T13:18:54.634Z,970.04
2023-02-19T13:19:54.448Z,970.06
2023-02-19T13:20:54.545Z,970.03
2023-02-19T13:21:54.611Z,970.05
2023-02-19T13:23:54.501Z,970.01
2023-02-19T13:24:54.474Z,970.02
2023-02-19T13:27:54.625Z,970.03
2023-02-19T13:29:54.630Z,970.02
2023-02-19T13:31:54.650Z,970.01
2023-02-19T13:32:54.582Z,969.98
2023-02-19T13:33:54.521Z,970.03
2023-02-19T13:35:54.540Z,970.01
2023-02-19T13:36:54.555Z,970.03
2023-02-19T13:37:54.624Z,970.04
2023-02-19T13:38:54.589Z,970.08
2023-02-19T13:39:54.620Z,970.03
2023-02-19T13:40:54.540Z,970.02
2023-02-19T13:41:54.614Z,970.01
2023-02-19T13:42:54.483Z,969.95
2023-02-19T13:43:54.570Z,969.93
2023-02-19T13:44:57.091Z,969.92
2023-02-19T13:45:54.704Z,969.96
2023-02-19T13:46:54.609Z,969.99
2023-02-19T13:47:54.564Z,969.96
2023-02-19T13:48:54.523Z,969.98
2023-02-19T13:49:54.601Z,969.93
2023-02-19T13:50:54.636Z,969.9
2023-02-19T13:51:54.674Z,969.83
2023-02-19T13:52:54.587Z,969.81
2023-02-19T13:53:54.610Z,969.8
2023-02-19T13:54:54.685Z,969.78
2023-02-19T13:55:54.569Z,969.83
2023-02-19T13:57:54.717Z,969.84
2023-02-19T13:58:54.629Z,969.85
2023-02-19T13:59:54.601Z,969.83
2023-02-19T14:00:54.600Z,969.85
2023-02-19T14:01:54.644Z,969.89
2023-02-19T14:03:54.536Z,969.88
2023-02-19T14:04:54.687Z,969.84
2023-02-19T14:05:54.652Z,969.9
2023-02-19T14:06:54.725Z,969.87
2023-02-19T14:07:54.707Z,969.86
2023-02-19T14:08:54.602Z,969.88
2023-02-19T14:09:54.646Z,969.83
2023-02-19T14:10:54.588Z,969.87
2023-02-19T14:11:54.656Z,969.85
2023-02-19T14:12:54.695Z,969.84
2023-02-19T14:13:54.630Z,969.9
2023-02-19T14:14:54.612Z,969.91
2023-02-19T14:15:54.668Z,969.85
2023-02-19T14:17:54.585Z,969.81
2023-02-19T14:18:54.689Z,969.79
2023-02-19T14:19:54.609Z,969.74
2023-02-19T14:20:54.645Z,969.73
2023-02-19T14:21:54.616Z,969.72
2023-02-19T14:22:54.575Z,969.69
2023-02-19T14:23:54.597Z,969.68
2023-02-19T14:24:54.551Z,969.65
2023-02-19T14:25:54.594Z,969.69